createdAt,value
2022-08-14T00:00:37.049Z,7.10
2022-08-14T00:03:40.762Z,7.90
2022-08-14T00:06:42.991Z,6.40
2022-08-14T00:10:02.219Z,7.57
2022-08-14T00:13:13.531Z,7.10
2022-08-14T00:16:41.434Z,7.67
2022-08-14T00:19:36.983Z,8.03
2022-08-14T00:22:56.129Z,8.07
2022-08-14T00:26:06.470Z,7.87
2022-08-14T00:29:10.084Z,7.87
2022-08-14T00:32:51.692Z,7.40
2022-08-14T00:36:37.432Z,7.63
2022-08-14T00:38:57.397Z,7.60
2022-08-14T00:41:59.311Z,7.00
2022-08-14T00:45:03.737Z,7.90
2022-08-14T00:48:06.333Z,8.10
2022-08-14T00:51:36.785Z,7.30
2022-08-14T00:54:40.378Z,7.70
2022-08-14T00:57:42.220Z,7.90
2022-08-14T01:04:03.154Z,7.43
2022-08-14T01:07:08.987Z,8.33
2022-08-14T01:10:12.142Z,8.83
2022-08-14T01:13:19.175Z,14.10
2022-08-14T01:16:22.453Z,26.27
2022-08-14T01:19:49.403Z,35.27
2022-08-14T01:22:51.415Z,45.70
2022-08-14T01:25:54.770Z,44.90
2022-08-14T01:28:59.233Z,49.77
2022-08-14T01:32:03.914Z,50.50
2022-08-14T01:35:20.113Z,54.50
2022-08-14T01:38:34.302Z,59.23
2022-08-14T01:41:39.818Z,65.23
2022-08-14T01:44:41.867Z,67.17
2022-08-14T01:47:51.572Z,66.67
2022-08-14T01:50:53.168Z,60.53
2022-08-14T01:53:58.990Z,56.10
2022-08-14T01:57:00.721Z,54.43
2022-08-14T02:00:03.158Z,50.57
2022-08-14T02:03:06.969Z,51.83
2022-08-14T02:06:33.079Z,52.57
2022-08-14T02:09:37.992Z,59.63
2022-08-14T02:12:42.221Z,64.43
2022-08-14T02:15:45.316Z,58.90
2022-08-14T02:18:49.086Z,56.00
2022-08-14T02:21:54.595Z,49.60
2022-08-14T02:24:57.131Z,45.27
2022-08-14T02:28:25.582Z,35.63
2022-08-14T02:31:21.090Z,26.80
2022-08-14T02:34:33.358Z,21.63
2022-08-14T02:37:47.141Z,16.43
2022-08-14T02:40:50.224Z,17.20
2022-08-14T02:43:52.350Z,16.43
2022-08-14T02:47:01.481Z,14.60
2022-08-14T02:50:04.587Z,13.03
2022-08-14T02:53:08.945Z,13.47
2022-08-14T02:56:30.005Z,13.37
2022-08-14T02:59:39.244Z,12.93
2022-08-14T03:02:55.949Z,12.23
2022-08-14T03:06:00.476Z,11.73
2022-08-14T03:09:02.218Z,13.20
2022-08-14T03:12:06.531Z,12.23
2022-08-14T03:15:16.242Z,14.00
2022-08-14T03:18:18.504Z,12.60
2022-08-14T03:21:22.825Z,13.53
2022-08-14T03:24:25.452Z,14.10
2022-08-14T03:27:35.533Z,13.73
2022-08-14T03:30:50.285Z,13.37
2022-08-14T03:33:56.777Z,11.20
2022-08-14T03:37:38.011Z,12.20
2022-08-14T03:40:25.201Z,12.17
2022-08-14T03:43:28.410Z,12.27
2022-08-14T03:46:38.995Z,12.60
2022-08-14T03:49:54.899Z,11.93
2022-08-14T03:53:01.547Z,12.07
2022-08-14T03:56:05.657Z,12.63
2022-08-14T03:59:18.063Z,12.40
2022-08-14T04:02:32.432Z,13.70
2022-08-14T04:05:43.435Z,13.17
2022-08-14T04:08:50.799Z,12.17
2022-08-14T04:11:52.420Z,12.57
2022-08-14T04:14:54.334Z,12.27
2022-08-14T04:17:56.401Z,12.90
2022-08-14T04:20:58.760Z,12.67
2022-08-14T04:24:01.669Z,12.90
2022-08-14T04:27:03.447Z,13.47
2022-08-14T04:30:06.579Z,13.30
2022-08-14T04:33:18.412Z,12.63
2022-08-14T04:36:23.924Z,12.43
2022-08-14T04:39:46.411Z,13.60
2022-08-14T04:43:06.930Z,13.07
2022-08-14T04:46:56.986Z,12.90
2022-08-14T04:49:56.729Z,14.27
2022-08-14T04:52:59.258Z,12.93
2022-08-14T04:56:06.152Z,13.20
2022-08-14T04:59:12.633Z,14.57
2022-08-14T05:02:16.561Z,15.97
2022-08-14T05:05:20.932Z,18.40
2022-08-14T05:08:32.155Z,18.23
2022-08-14T05:11:45.279Z,22.10
2022-08-14T05:14:55.039Z,23.70
2022-08-14T05:18:03.640Z,26.43
2022-08-14T05:21:57.964Z,26.80
2022-08-14T05:24:40.551Z,28.20
2022-08-14T05:27:42.549Z,28.10
2022-08-14T05:30:44.597Z,28.20
2022-08-14T05:33:46.560Z,27.93
2022-08-14T05:37:02.284Z,29.97
2022-08-14T05:40:04.999Z,32.00
2022-08-14T05:43:08.627Z,31.20
2022-08-14T05:46:15.224Z,31.43
2022-08-14T05:49:17.339Z,30.17
2022-08-14T05:52:26.519Z,31.50
2022-08-14T05:55:42.781Z,31.03
2022-08-14T05:58:46.148Z,30.20
2022-08-14T06:01:47.974Z,30.23
2022-08-14T06:04:52.709Z,28.87
2022-08-14T06:07:54.387Z,29.00
2022-08-14T06:11:03.578Z,27.03
2022-08-14T06:14:06.657Z,30.50
2022-08-14T06:17:24.741Z,29.73
2022-08-14T06:20:30.110Z,33.23
2022-08-14T06:23:32.096Z,33.90
2022-08-14T06:26:33.982Z,36.83
2022-08-14T06:29:37.914Z,32.77
2022-08-14T06:32:39.932Z,29.97
2022-08-14T06:35:44.362Z,27.37
2022-08-14T06:38:50.624Z,26.63
2022-08-14T06:41:58.252Z,24.50
2022-08-14T06:45:02.229Z,23.63
2022-08-14T06:48:12.654Z,21.03
2022-08-14T06:51:14.555Z,16.40
2022-08-14T06:54:16.191Z,15.60
2022-08-14T06:57:18.028Z,13.67
2022-08-14T07:00:27.290Z,13.90
2022-08-14T07:03:48.233Z,13.90
2022-08-14T07:06:50.239Z,12.30
2022-08-14T07:09:52.126Z,11.33
2022-08-14T07:13:03.879Z,12.17
2022-08-14T07:16:06.648Z,11.07
2022-08-14T07:19:09.762Z,11.80
2022-08-14T07:22:20.497Z,11.43
2022-08-14T07:25:22.459Z,10.23
2022-08-14T07:28:43.636Z,10.70
2022-08-14T07:31:46.480Z,11.27
2022-08-14T07:34:48.862Z,11.13
2022-08-14T07:37:52.653Z,11.57
2022-08-14T07:40:54.746Z,10.50
2022-08-14T07:43:57.721Z,11.10
2022-08-14T07:46:59.931Z,10.60
2022-08-14T07:50:11.878Z,11.57
2022-08-14T07:53:19.288Z,10.53
2022-08-14T07:56:44.187Z,11.10
2022-08-14T07:59:44.402Z,11.60
2022-08-14T08:02:55.039Z,10.93
2022-08-14T08:06:00.220Z,11.00
2022-08-14T08:09:03.571Z,10.77
2022-08-14T08:12:09.157Z,11.90
2022-08-14T08:15:11.319Z,10.27
2022-08-14T08:18:27.358Z,10.20
2022-08-14T08:21:33.274Z,11.33
2022-08-14T08:24:37.315Z,10.63
2022-08-14T08:27:44.699Z,9.73
2022-08-14T08:31:00.101Z,9.67
2022-08-14T08:34:06.182Z,9.50
2022-08-14T08:37:07.951Z,9.50
2022-08-14T08:40:11.654Z,9.83
2022-08-14T08:43:28.551Z,10.37
2022-08-14T08:46:30.188Z,8.90
2022-08-14T08:49:53.031Z,10.80
2022-08-14T08:53:07.972Z,10.43
2022-08-14T08:56:11.017Z,10.50
2022-08-14T08:59:34.426Z,10.30
2022-08-14T09:02:36.174Z,10.30
2022-08-14T09:05:51.660Z,9.40
2022-08-14T09:08:55.886Z,9.57
2022-08-14T09:12:00.381Z,9.30
2022-08-14T09:15:04.354Z,9.23
2022-08-14T09:18:15.170Z,10.00
2022-08-14T09:21:21.182Z,9.50
2022-08-14T09:24:35.319Z,9.47
2022-08-14T09:27:39.640Z,9.33
2022-08-14T09:30:49.360Z,9.27
2022-08-14T09:34:28.529Z,8.90
2022-08-14T09:37:55.782Z,8.73
2022-08-14T09:41:18.288Z,8.50
2022-08-14T09:44:46.087Z,8.43
2022-08-14T09:47:54.426Z,8.20
2022-08-14T09:50:57.311Z,8.20
2022-08-14T09:54:19.065Z,8.60
2022-08-14T09:57:27.733Z,8.53
2022-08-14T10:00:49.314Z,8.47
2022-08-14T10:03:56.691Z,8.83
2022-08-14T10:07:01.512Z,8.50
2022-08-14T10:10:23.516Z,8.23
2022-08-14T10:13:26.191Z,8.87
2022-08-14T10:16:33.128Z,8.77
2022-08-14T10:19:37.208Z,8.10
2022-08-14T10:23:13.382Z,7.80
2022-08-14T10:26:06.560Z,8.10
2022-08-14T10:29:20.252Z,7.63
2022-08-14T10:32:36.158Z,7.83
2022-08-14T10:35:48.390Z,7.20
2022-08-14T10:38:58.141Z,7.20
2022-08-14T10:42:16.728Z,7.30
2022-08-14T10:45:35.790Z,8.10
2022-08-14T10:49:02.726Z,7.60
2022-08-14T10:52:22.082Z,8.37
2022-08-14T10:55:23.956Z,7.93
2022-08-14T10:58:34.151Z,8.57
2022-08-14T11:01:41.207Z,8.10
2022-08-14T11:04:43.659Z,8.05
2022-08-14T11:07:59.666Z,8.05
2022-08-14T11:11:05.360Z,7.60
2022-08-14T11:14:09.463Z,8.20
2022-08-14T11:17:12.587Z,8.45
2022-08-14T11:20:19.899Z,7.65
2022-08-14T11:23:38.576Z,8.45
2022-08-14T11:26:45.006Z,7.97
2022-08-14T11:29:52.701Z,7.53
2022-08-14T11:33:03.820Z,7.47
2022-08-14T11:36:17.765Z,7.20
2022-08-14T11:39:33.290Z,8.18
2022-08-14T11:42:56.425Z,7.78
2022-08-14T11:46:03.984Z,7.60
2022-08-14T11:49:09.280Z,6.80
2022-08-14T11:52:13.511Z,7.78
2022-08-14T11:55:16.311Z,6.40
2022-08-14T11:58:23.678Z,6.82
2022-08-14T12:01:28.709Z,7.05
2022-08-14T12:04:33.411Z,7.32
2022-08-14T12:07:36.006Z,7.40
2022-08-14T12:10:42.365Z,6.75
2022-08-14T12:13:45.007Z,6.78
2022-08-14T12:17:04.192Z,6.60
2022-08-14T12:20:07.181Z,6.57
2022-08-14T12:23:24.812Z,6.88
2022-08-14T12:26:39.808Z,6.57
2022-08-14T12:29:53.896Z,7.50
2022-08-14T12:32:56.309Z,6.75
2022-08-14T12:36:00.412Z,7.18
2022-08-14T12:39:20.252Z,6.40
2022-08-14T12:42:36.457Z,6.78
2022-08-14T12:45:51.051Z,7.03
2022-08-14T12:48:54.967Z,7.25
2022-08-14T12:51:59.589Z,7.00
2022-08-14T12:55:06.117Z,6.82
2022-08-14T12:58:35.054Z,6.45
2022-08-14T13:01:59.412Z,7.22
2022-08-14T13:04:55.750Z,7.18
2022-08-14T13:08:00.549Z,6.20
2022-08-14T13:11:06.313Z,7.28
2022-08-14T13:14:17.399Z,7.03
2022-08-14T13:17:20.604Z,6.82
2022-08-14T13:20:26.695Z,6.32
2022-08-14T13:23:37.493Z,6.63
2022-08-14T13:26:51.702Z,6.90
2022-08-14T13:29:57.476Z,6.90
2022-08-14T13:33:01.647Z,7.10
2022-08-14T13:36:04.131Z,7.30
2022-08-14T13:39:06.968Z,6.43
2022-08-14T13:42:13.373Z,6.03
2022-08-14T13:45:15.470Z,6.85
2022-08-14T13:48:32.380Z,6.38
2022-08-14T13:51:38.366Z,6.45
2022-08-14T13:54:42.119Z,6.57
2022-08-14T13:57:49.732Z,6.90
2022-08-14T14:01:06.658Z,6.13
2022-08-14T14:04:19.114Z,6.78
2022-08-14T14:07:23.584Z,6.82
2022-08-14T14:10:28.476Z,7.40
2022-08-14T14:13:32.097Z,7.00
2022-08-14T14:16:36.839Z,6.85
2022-08-14T14:19:41.248Z,7.10
2022-08-14T14:23:02.421Z,6.80
2022-08-14T14:26:06.027Z,7.05
2022-08-14T14:29:09.653Z,6.75
2022-08-14T14:32:11.387Z,6.50
2022-08-14T14:35:32.742Z,6.88
2022-08-14T14:38:42.093Z,7.18
2022-08-14T14:41:55.955Z,7.63
2022-08-14T14:45:14.128Z,7.10
2022-08-14T14:48:19.381Z,7.25
2022-08-14T14:51:21.879Z,7.53
2022-08-14T14:54:30.233Z,7.63
2022-08-14T14:57:36.284Z,7.32
2022-08-14T15:00:39.282Z,7.38
2022-08-14T15:03:43.981Z,7.20
2022-08-14T15:06:48.055Z,7.43
2022-08-14T15:09:49.984Z,7.38
2022-08-14T15:12:56.064Z,7.18
2022-08-14T15:16:00.921Z,7.03
2022-08-14T15:19:03.089Z,6.80
2022-08-14T15:22:06.504Z,7.82
2022-08-14T15:25:11.025Z,7.05
2022-08-14T15:28:21.096Z,7.38
2022-08-14T15:31:23.392Z,7.40
2022-08-14T15:34:44.287Z,8.10
2022-08-14T15:37:55.905Z,7.38
2022-08-14T15:41:04.496Z,7.82
2022-08-14T15:44:25.605Z,7.30
2022-08-14T15:47:30.874Z,7.63
2022-08-14T15:50:33.227Z,6.90
2022-08-14T15:53:35.936Z,7.28
2022-08-14T15:56:42.939Z,7.00
2022-08-14T16:00:03.693Z,7.63
2022-08-14T16:03:08.712Z,6.93
2022-08-14T16:06:19.416Z,8.30
2022-08-14T16:09:21.379Z,7.53
2022-08-14T16:12:41.820Z,7.03
2022-08-14T16:15:53.029Z,7.07
2022-08-14T16:18:58.063Z,7.32
2022-08-14T16:22:57.351Z,6.85
2022-08-14T16:25:34.852Z,7.30
2022-08-14T16:28:52.773Z,7.07
2022-08-14T16:31:55.288Z,6.50
2022-08-14T16:34:57.360Z,7.20
2022-08-14T16:38:00.190Z,6.82
2022-08-14T16:41:31.433Z,6.93
2022-08-14T16:44:39.079Z,6.90
2022-08-14T16:47:42.847Z,7.07
2022-08-14T16:50:45.616Z,7.20
2022-08-14T16:53:47.900Z,7.10
2022-08-14T16:56:49.500Z,6.68
2022-08-14T16:59:57.718Z,6.95
2022-08-14T17:03:11.760Z,6.85
2022-08-14T17:06:33.305Z,6.85
2022-08-14T17:09:50.244Z,7.22
2022-08-14T17:12:51.885Z,6.78
2022-08-14T17:16:05.313Z,6.40
2022-08-14T17:19:13.563Z,7.10
2022-08-14T17:22:16.707Z,6.78
2022-08-14T17:25:22.056Z,6.65
2022-08-14T17:28:52.367Z,7.00
2022-08-14T17:31:58.788Z,7.10
2022-08-14T17:35:05.304Z,6.70
2022-08-14T17:38:38.907Z,6.45
2022-08-14T17:41:48.342Z,6.70
2022-08-14T17:45:05.067Z,6.65
2022-08-14T17:49:10.532Z,6.93
2022-08-14T17:52:09.139Z,7.43
2022-08-14T17:56:01.515Z,7.00
2022-08-14T17:58:43.326Z,7.05
2022-08-14T18:01:46.054Z,7.28
2022-08-14T18:04:51.123Z,6.93
2022-08-14T18:07:59.662Z,6.63
2022-08-14T18:11:18.660Z,7.95
2022-08-14T18:14:32.072Z,7.68
2022-08-14T18:17:37.520Z,6.60
2022-08-14T18:21:42.212Z,7.03
2022-08-14T18:24:02.154Z,6.90
2022-08-14T18:27:23.469Z,7.10
2022-08-14T18:30:31.839Z,7.93
2022-08-14T18:33:52.008Z,6.90
2022-08-14T18:37:03.702Z,8.10
2022-08-14T18:40:16.234Z,6.33
2022-08-14T18:43:45.432Z,6.93
2022-08-14T18:47:16.661Z,6.57
2022-08-14T18:50:26.988Z,7.80
2022-08-14T18:53:57.060Z,7.40
2022-08-14T18:57:01.672Z,7.00
2022-08-14T19:00:43.275Z,7.30
2022-08-14T19:03:54.555Z,7.50
2022-08-14T19:07:16.310Z,7.83
2022-08-14T19:10:31.966Z,6.70
2022-08-14T19:13:48.571Z,7.57
2022-08-14T19:16:53.743Z,6.90
2022-08-14T19:20:08.687Z,6.70
2022-08-14T19:23:18.121Z,7.30
2022-08-14T19:26:35.367Z,6.53
2022-08-14T19:29:39.882Z,7.03
2022-08-14T19:32:41.969Z,7.47
2022-08-14T19:35:49.501Z,7.60
2022-08-14T19:39:01.961Z,8.40
2022-08-14T19:42:10.122Z,7.40
2022-08-14T19:45:15.691Z,7.57
2022-08-14T19:48:17.367Z,7.97
2022-08-14T19:51:19.189Z,7.97
2022-08-14T19:54:34.658Z,8.03
2022-08-14T19:57:36.955Z,8.70
2022-08-14T20:00:52.605Z,8.63
2022-08-14T20:03:59.937Z,8.30
2022-08-14T20:07:04.247Z,8.20
2022-08-14T20:11:03.051Z,7.50
2022-08-14T20:13:45.954Z,9.93
2022-08-14T20:16:54.596Z,8.90
2022-08-14T20:19:57.610Z,8.30
2022-08-14T20:23:11.462Z,8.20
2022-08-14T20:26:31.782Z,8.10
2022-08-14T20:29:40.642Z,8.43
2022-08-14T20:33:01.821Z,7.87
2022-08-14T20:36:15.231Z,8.67
2022-08-14T20:39:27.840Z,11.57
2022-08-14T20:42:54.939Z,7.77
2022-08-14T20:46:11.239Z,8.20
2022-08-14T20:49:16.632Z,8.13
2022-08-14T20:52:19.308Z,8.83
2022-08-14T20:55:24.697Z,8.13
2022-08-14T20:58:42.126Z,8.77
2022-08-14T21:02:28.844Z,8.20
2022-08-14T21:05:34.073Z,8.33
2022-08-14T21:08:37.159Z,8.73
2022-08-14T21:11:40.119Z,8.50
2022-08-14T21:14:51.667Z,8.47
2022-08-14T21:17:56.008Z,8.37
2022-08-14T21:20:59.894Z,8.20
2022-08-14T21:24:01.645Z,8.40
2022-08-14T21:27:12.650Z,8.30
2022-08-14T21:30:20.270Z,8.77
2022-08-14T21:33:22.877Z,8.47
2022-08-14T21:36:25.273Z,7.40
2022-08-14T21:39:33.391Z,8.00
2022-08-14T21:42:36.745Z,8.00
2022-08-14T21:45:38.998Z,7.80
2022-08-14T21:48:44.464Z,8.70
2022-08-14T21:51:53.577Z,8.20
2022-08-14T21:55:00.098Z,7.93
2022-08-14T21:58:54.106Z,7.70
2022-08-14T22:01:23.935Z,8.53
2022-08-14T22:04:32.890Z,7.57
2022-08-14T22:07:36.762Z,7.70
2022-08-14T22:10:42.894Z,7.83
2022-08-14T22:13:46.963Z,7.47
2022-08-14T22:17:00.232Z,7.93
2022-08-14T22:20:16.320Z,8.03
2022-08-14T22:23:19.355Z,7.20
2022-08-14T22:26:21.898Z,7.23
2022-08-14T22:29:24.047Z,7.17
2022-08-14T22:32:35.239Z,6.67
2022-08-14T22:35:56.397Z,5.90
2022-08-14T22:38:58.259Z,5.43
2022-08-14T22:42:01.791Z,5.90
2022-08-14T22:45:23.349Z,5.50
2022-08-14T22:48:25.181Z,5.50
2022-08-14T22:51:31.465Z,4.80
2022-08-14T22:54:52.638Z,5.63
2022-08-14T22:57:55.517Z,5.10
2022-08-14T23:00:57.279Z,5.50
2022-08-14T23:03:59.907Z,5.10
2022-08-14T23:07:05.217Z,5.07
2022-08-14T23:10:33.367Z,4.97
2022-08-14T23:13:32.890Z,5.27
2022-08-14T23:16:35.832Z,5.23
2022-08-14T23:19:38.154Z,5.47
2022-08-14T23:22:41.682Z,4.73
2022-08-14T23:26:00.082Z,5.07
2022-08-14T23:29:09.371Z,5.00
2022-08-14T23:32:15.627Z,4.70
2022-08-14T23:35:27.119Z,5.40
2022-08-14T23:38:30.660Z,5.00
2022-08-14T23:41:45.815Z,5.37
2022-08-14T23:44:48.848Z,5.07
2022-08-14T23:47:52.275Z,4.60
2022-08-14T23:50:54.867Z,4.87
2022-08-14T23:53:59.316Z,4.73
2022-08-14T23:57:04.464Z,5.10
